createdAt,value
2022-08-05T00:02:39.427Z,16.91
2022-08-05T00:06:01.594Z,16.61
2022-08-05T00:08:35.450Z,17.12
2022-08-05T00:11:34.465Z,16.93
2022-08-05T00:14:16.819Z,16.89
2022-08-05T00:16:54.032Z,16.98
2022-08-05T00:19:33.322Z,17.12
2022-08-05T00:22:06.590Z,17.22
2022-08-05T00:24:43.676Z,17.11
2022-08-05T00:27:19.651Z,17.04
2022-08-05T00:29:52.247Z,17.24
2022-08-05T00:32:31.093Z,17.11
2022-08-05T00:35:07.830Z,17.30
2022-08-05T00:37:52.707Z,16.81
2022-08-05T00:40:30.877Z,17.42
2022-08-05T00:43:12.515Z,17.28
2022-08-05T00:45:48.836Z,17.44
2022-08-05T00:48:27.452Z,17.09
2022-08-05T00:51:09.035Z,17.39
2022-08-05T00:54:02.243Z,17.33
2022-08-05T00:56:36.955Z,17.23
2022-08-05T00:59:13.609Z,16.80
2022-08-05T01:01:48.990Z,17.11
2022-08-05T01:04:26.976Z,17.36
2022-08-05T01:07:08.579Z,17.42
2022-08-05T01:09:46.878Z,17.26
2022-08-05T01:12:29.714Z,17.22
2022-08-05T01:15:35.675Z,17.47
2022-08-05T01:18:09.635Z,17.54
2022-08-05T01:21:13.546Z,17.45
2022-08-05T01:24:32.870Z,17.47
2022-08-05T01:27:55.313Z,17.33
2022-08-05T01:30:36.508Z,17.40
2022-08-05T01:33:19.644Z,17.50
2022-08-05T01:36:16.011Z,17.57
2022-08-05T01:38:50.916Z,17.65
2022-08-05T01:41:38.204Z,17.35
2022-08-05T01:44:34.230Z,17.38
2022-08-05T01:47:21.506Z,17.13
2022-08-05T01:50:00.317Z,17.44
2022-08-05T01:52:40.528Z,17.60
2022-08-05T01:55:21.678Z,17.42
2022-08-05T01:58:10.210Z,17.45
2022-08-05T02:00:55.156Z,17.62
2022-08-05T02:03:47.324Z,17.24
2022-08-05T02:06:33.450Z,17.04
2022-08-05T02:09:16.430Z,17.22
2022-08-05T02:12:32.861Z,17.52
2022-08-05T02:15:33.195Z,17.40
2022-08-05T02:18:44.628Z,17.50
2022-08-05T02:21:46.776Z,17.37
2022-08-05T02:24:55.408Z,17.07
2022-08-05T02:27:57.880Z,16.95
2022-08-05T02:30:54.810Z,17.10
2022-08-05T02:33:45.544Z,16.88
2022-08-05T02:36:31.198Z,17.05
2022-08-05T02:39:12.239Z,16.72
2022-08-05T02:42:01.140Z,16.72
2022-08-05T02:44:40.762Z,17.35
2022-08-05T02:48:11.519Z,17.05
2022-08-05T02:50:45.391Z,17.03
2022-08-05T02:53:22.196Z,17.54
2022-08-05T02:56:18.792Z,16.71
2022-08-05T02:59:07.675Z,16.76
2022-08-05T03:02:16.843Z,16.85
2022-08-05T03:04:58.240Z,17.16
2022-08-05T03:08:00.409Z,16.96
2022-08-05T03:15:06.777Z,16.71
2022-08-05T03:16:23.357Z,16.96
2022-08-05T03:19:12.858Z,16.68
2022-08-05T03:22:05.047Z,16.99
2022-08-05T03:28:25.925Z,16.70
2022-08-05T03:31:04.291Z,17.21
2022-08-05T03:37:22.199Z,16.57
2022-08-05T03:39:47.356Z,16.75
2022-08-05T03:42:52.217Z,16.71
2022-08-05T03:45:23.655Z,16.83
2022-08-05T03:47:58.864Z,16.17
2022-08-05T03:52:38.875Z,16.86
2022-08-05T03:55:06.918Z,16.64
2022-08-05T03:57:41.821Z,16.73
2022-08-05T04:00:16.734Z,16.94
2022-08-05T04:02:58.978Z,16.67
2022-08-05T04:05:35.559Z,16.89
2022-08-05T04:08:14.532Z,16.94
2022-08-05T04:11:04.141Z,16.78
2022-08-05T04:13:53.472Z,16.91
2022-08-05T04:16:32.465Z,16.61
2022-08-05T04:19:10.545Z,16.90
2022-08-05T04:22:09.086Z,16.83
2022-08-05T04:24:36.056Z,16.95
2022-08-05T04:27:08.831Z,16.87
2022-08-05T04:29:43.891Z,16.97
2022-08-05T04:32:30.561Z,16.89
2022-08-05T04:35:04.661Z,16.91
2022-08-05T04:38:02.493Z,16.75
2022-08-05T04:40:35.416Z,16.91
2022-08-05T04:43:11.037Z,16.96
2022-08-05T04:45:54.920Z,16.92
2022-08-05T04:48:28.550Z,16.99
2022-08-05T04:51:11.338Z,16.99
2022-08-05T04:53:44.291Z,17.01
2022-08-05T04:56:35.035Z,17.03
2022-08-05T04:59:21.696Z,16.96
2022-08-05T05:02:08.196Z,16.80
2022-08-05T05:04:51.744Z,16.84
2022-08-05T05:07:29.560Z,16.77
2022-08-05T05:10:06.663Z,16.82
2022-08-05T05:12:39.486Z,16.69
2022-08-05T05:15:12.660Z,16.69
2022-08-05T05:17:56.460Z,16.61
2022-08-05T05:20:30.884Z,16.73
2022-08-05T05:23:08.408Z,16.73
2022-08-05T05:25:52.603Z,16.68
2022-08-05T05:28:25.348Z,16.71
2022-08-05T05:30:58.387Z,16.65
2022-08-05T05:33:31.354Z,16.76
2022-08-05T05:36:24.035Z,16.65
2022-08-05T05:39:03.717Z,16.80
2022-08-05T05:41:40.538Z,16.69
2022-08-05T05:44:35.949Z,16.47
2022-08-05T05:47:21.337Z,16.72
2022-08-05T05:50:01.297Z,16.79
2022-08-05T05:52:40.538Z,16.64
2022-08-05T05:55:15.537Z,16.79
2022-08-05T05:57:52.683Z,16.61
2022-08-05T06:00:31.309Z,16.62
2022-08-05T06:03:40.096Z,16.65
2022-08-05T06:05:59.667Z,16.66
2022-08-05T06:08:35.205Z,16.94
2022-08-05T06:11:13.434Z,16.74
2022-08-05T06:13:50.525Z,16.44
2022-08-05T06:16:36.643Z,17.00
2022-08-05T06:19:12.444Z,17.10
2022-08-05T06:21:49.803Z,17.22
2022-08-05T06:24:25.824Z,17.26
2022-08-05T06:27:01.314Z,17.17
2022-08-05T06:29:48.914Z,17.12
2022-08-05T06:32:29.437Z,17.39
2022-08-05T06:35:06.074Z,17.44
2022-08-05T06:37:58.177Z,17.54
2022-08-05T06:40:33.618Z,17.84
2022-08-05T06:43:06.393Z,17.59
2022-08-05T06:46:03.832Z,17.70
2022-08-05T06:48:52.887Z,17.83
2022-08-05T06:51:31.323Z,17.89
2022-08-05T06:54:07.144Z,18.31
2022-08-05T06:56:42.876Z,18.15
2022-08-05T06:59:27.894Z,18.57
2022-08-05T07:02:00.762Z,18.76
2022-08-05T07:04:34.363Z,18.31
2022-08-05T07:07:11.221Z,17.85
2022-08-05T07:09:47.882Z,18.28
2022-08-05T07:12:49.188Z,18.34
2022-08-05T07:16:00.816Z,18.04
2022-08-05T07:18:34.399Z,18.26
2022-08-05T07:21:07.907Z,18.26
2022-08-05T07:23:49.149Z,18.65
2022-08-05T07:26:25.010Z,18.55
2022-08-05T07:28:59.653Z,18.35
2022-08-05T07:31:54.005Z,18.68
2022-08-05T07:34:28.578Z,18.79
2022-08-05T07:37:01.497Z,18.85
2022-08-05T07:40:26.887Z,19.06
2022-08-05T07:42:33.819Z,19.49
2022-08-05T07:45:09.276Z,19.56
2022-08-05T07:47:42.744Z,19.73
2022-08-05T07:50:16.651Z,19.87
2022-08-05T07:52:49.969Z,19.62
2022-08-05T07:55:44.195Z,19.90
2022-08-05T07:58:57.529Z,19.73
2022-08-05T08:01:15.407Z,19.71
2022-08-05T08:03:48.601Z,19.56
2022-08-05T08:06:28.118Z,19.91
2022-08-05T08:09:06.801Z,20.15
2022-08-05T08:11:58.945Z,20.89
2022-08-05T08:14:40.789Z,20.31
2022-08-05T08:17:39.580Z,20.32
2022-08-05T08:26:57.561Z,22.02
2022-08-05T08:27:07.677Z,20.98
2022-08-05T08:32:53.850Z,21.58
2022-08-05T08:35:41.198Z,22.58
2022-08-05T08:40:07.299Z,23.78
2022-08-05T08:41:52.115Z,24.11
2022-08-05T08:45:17.714Z,23.33
2022-08-05T08:52:17.777Z,23.64
2022-08-05T08:56:02.613Z,22.71
2022-08-05T09:01:35.955Z,21.95
2022-08-05T09:04:21.835Z,22.09
2022-08-05T09:07:29.222Z,22.07
2022-08-05T09:10:17.691Z,22.01
2022-08-05T09:13:12.177Z,21.91
2022-08-05T09:15:49.591Z,21.60
2022-08-05T09:18:51.637Z,22.88
2022-08-05T09:24:44.212Z,24.80
2022-08-05T09:28:04.632Z,24.14
2022-08-05T09:30:31.734Z,24.31
2022-08-05T09:33:17.472Z,25.73
2022-08-05T09:36:11.857Z,25.31
2022-08-05T09:39:45.840Z,24.55
2022-08-05T09:42:28.534Z,23.60
2022-08-05T09:45:17.826Z,23.40
2022-08-05T09:48:01.074Z,24.49
2022-08-05T09:50:44.445Z,24.65
2022-08-05T09:53:26.202Z,25.05
2022-08-05T09:56:13.150Z,24.95
2022-08-05T09:59:06.805Z,25.29
2022-08-05T10:01:45.863Z,25.33
2022-08-05T10:04:18.986Z,24.32
2022-08-05T10:07:19.458Z,22.46
2022-08-05T10:10:04.235Z,21.85
2022-08-05T10:12:52.679Z,21.38
2022-08-05T10:15:36.571Z,21.04
2022-08-05T10:18:19.870Z,21.89
2022-08-05T10:20:56.757Z,23.27
2022-08-05T10:23:56.217Z,23.51
2022-08-05T10:26:32.398Z,23.62
2022-08-05T10:29:07.551Z,23.81
2022-08-05T10:32:53.997Z,24.65
2022-08-05T10:34:34.786Z,25.72
2022-08-05T10:37:09.961Z,26.70
2022-08-05T10:40:03.255Z,25.28
2022-08-05T10:42:39.310Z,24.71
2022-08-05T10:45:39.811Z,23.89
2022-08-05T10:48:56.519Z,23.22
2022-08-05T10:51:57.285Z,22.77
2022-08-05T10:55:05.869Z,22.86
2022-08-05T10:57:41.274Z,22.87
2022-08-05T11:00:23.097Z,24.46
2022-08-05T11:03:24.625Z,24.84
2022-08-05T11:06:16.135Z,24.47
2022-08-05T11:09:24.478Z,24.63
2022-08-05T11:12:06.164Z,25.94
2022-08-05T11:18:07.539Z,27.79
2022-08-05T11:20:43.882Z,28.42
2022-08-05T11:24:04.387Z,28.26
2022-08-05T11:26:34.593Z,28.92
2022-08-05T11:29:13.537Z,28.92
2022-08-05T11:31:54.275Z,28.67
2022-08-05T11:34:50.748Z,28.94
2022-08-05T11:38:29.466Z,29.80
2022-08-05T11:41:35.621Z,29.87
2022-08-05T11:44:11.425Z,30.46
2022-08-05T11:47:09.197Z,30.46
2022-08-05T11:49:43.461Z,30.63
2022-08-05T11:52:29.259Z,31.30
2022-08-05T11:55:07.336Z,31.02
2022-08-05T11:58:09.811Z,28.75
2022-08-05T12:00:41.182Z,28.96
2022-08-05T12:03:23.789Z,27.82
2022-08-05T12:06:06.457Z,26.82
2022-08-05T12:08:53.377Z,26.22
2022-08-05T12:11:40.183Z,26.41
2022-08-05T12:14:14.707Z,25.92
2022-08-05T12:16:49.586Z,25.77
2022-08-05T12:20:26.353Z,25.70
2022-08-05T12:22:26.361Z,26.48
2022-08-05T12:24:59.640Z,25.99
2022-08-05T12:27:35.713Z,25.51
2022-08-05T12:30:29.132Z,27.17
2022-08-05T12:33:07.127Z,27.27
2022-08-05T12:35:58.565Z,25.92
2022-08-05T12:38:31.623Z,26.60
2022-08-05T12:41:13.250Z,25.73
2022-08-05T12:44:11.602Z,26.51
2022-08-05T12:46:56.564Z,27.06
2022-08-05T12:50:04.197Z,25.60
2022-08-05T12:52:42.697Z,25.95
2022-08-05T12:55:23.946Z,26.74
2022-08-05T12:58:51.273Z,25.47
2022-08-05T13:02:03.021Z,26.38
2022-08-05T13:03:48.865Z,27.37
2022-08-05T13:06:26.449Z,27.58
2022-08-05T13:09:08.659Z,27.41
2022-08-05T13:12:01.503Z,28.02
2022-08-05T13:17:41.900Z,28.70
2022-08-05T13:20:21.796Z,27.56
2022-08-05T13:23:00.313Z,27.06
2022-08-05T13:25:51.830Z,27.31
2022-08-05T13:28:29.465Z,27.89
2022-08-05T13:31:13.949Z,28.13
2022-08-05T13:34:23.604Z,27.80
2022-08-05T13:36:46.634Z,28.03
2022-08-05T13:40:14.362Z,28.64
2022-08-05T13:42:15.405Z,28.29
2022-08-05T13:44:52.037Z,29.47
2022-08-05T13:47:35.860Z,28.78
2022-08-05T13:50:19.736Z,28.46
2022-08-05T13:52:52.692Z,28.42
2022-08-05T13:55:41.774Z,29.57
2022-08-05T13:58:30.297Z,29.54
2022-08-05T14:01:12.965Z,29.57
2022-08-05T14:04:05.738Z,28.93
2022-08-05T14:06:39.932Z,28.33
2022-08-05T14:09:30.332Z,28.55
2022-08-05T14:12:17.662Z,27.85
2022-08-05T14:14:56.904Z,27.90
2022-08-05T14:17:29.832Z,28.44
2022-08-05T14:20:07.459Z,28.17
2022-08-05T14:22:40.670Z,27.07
2022-08-05T14:25:28.090Z,25.11
2022-08-05T14:28:01.165Z,24.11
2022-08-05T14:30:33.748Z,23.45
2022-08-05T14:33:09.898Z,22.95
2022-08-05T14:35:51.339Z,23.06
2022-08-05T14:38:34.064Z,25.09
2022-08-05T14:41:08.528Z,26.70
2022-08-05T14:44:01.930Z,27.40
2022-08-05T14:46:34.993Z,27.28
2022-08-05T14:49:08.439Z,27.08
2022-08-05T14:51:42.911Z,26.72
2022-08-05T14:54:27.723Z,27.09
2022-08-05T14:57:05.273Z,26.67
2022-08-05T14:59:42.212Z,26.09
2022-08-05T15:02:16.062Z,25.69
2022-08-05T15:04:49.917Z,25.08
2022-08-05T15:08:08.681Z,25.59
2022-08-05T15:10:15.831Z,25.15
2022-08-05T15:13:00.173Z,24.10
2022-08-05T15:15:53.893Z,23.93
2022-08-05T15:18:27.747Z,23.13
2022-08-05T15:21:07.174Z,23.12
2022-08-05T15:23:40.575Z,24.83
2022-08-05T15:26:13.447Z,26.54
2022-08-05T15:28:54.438Z,27.24
2022-08-05T15:31:34.534Z,26.63
2022-08-05T15:34:32.443Z,26.13
2022-08-05T15:37:06.974Z,25.25
2022-08-05T15:40:59.231Z,25.02
2022-08-05T15:42:54.609Z,25.87
2022-08-05T15:45:37.932Z,24.64
2022-08-05T15:48:13.994Z,24.08
2022-08-05T15:50:50.493Z,23.28
2022-08-05T15:53:26.564Z,22.81
2022-08-05T15:56:14.146Z,23.07
2022-08-05T15:58:56.930Z,22.65
2022-08-05T16:01:39.598Z,22.61
2022-08-05T16:04:53.386Z,22.30
2022-08-05T16:07:39.501Z,22.29
2022-08-05T16:10:55.113Z,22.85
2022-08-05T16:13:53.475Z,22.74
2022-08-05T16:16:29.706Z,23.68
2022-08-05T16:19:09.764Z,23.69
2022-08-05T16:22:00.528Z,24.32
2022-08-05T16:24:40.143Z,25.20
2022-08-05T16:27:16.007Z,25.13
2022-08-05T16:29:50.175Z,23.61
2022-08-05T16:32:28.590Z,23.05
2022-08-05T16:35:03.619Z,22.39
2022-08-05T16:38:02.930Z,22.10
2022-08-05T16:40:30.949Z,22.02
2022-08-05T16:43:06.751Z,21.66
2022-08-05T16:46:06.745Z,21.44
2022-08-05T16:48:35.068Z,21.28
2022-08-05T16:51:09.792Z,22.18
2022-08-05T16:54:05.727Z,23.57
2022-08-05T16:56:36.359Z,23.98
2022-08-05T16:59:10.373Z,24.15
2022-08-05T17:01:53.817Z,24.29
2022-08-05T17:04:28.892Z,23.79
2022-08-05T17:07:03.278Z,22.84
2022-08-05T17:09:56.028Z,22.30
2022-08-05T17:12:51.928Z,22.79
2022-08-05T17:15:23.926Z,22.88
2022-08-05T17:18:02.386Z,23.26
2022-08-05T17:20:35.193Z,22.64
2022-08-05T17:23:09.828Z,21.42
2022-08-05T17:26:02.452Z,20.94
2022-08-05T17:28:36.232Z,20.70
2022-08-05T17:31:24.039Z,20.55
2022-08-05T17:34:01.967Z,20.22
2022-08-05T17:36:40.365Z,20.08
2022-08-05T17:39:24.410Z,19.99
2022-08-05T17:42:28.611Z,19.51
2022-08-05T17:45:09.897Z,19.46
2022-08-05T17:47:56.043Z,19.23
2022-08-05T17:50:30.711Z,19.06
2022-08-05T17:53:05.107Z,18.85
2022-08-05T17:55:40.050Z,18.49
2022-08-05T17:58:14.539Z,18.34
2022-08-05T18:00:50.700Z,18.43
2022-08-05T18:03:56.315Z,18.29
2022-08-05T18:06:17.577Z,18.35
2022-08-05T18:09:03.791Z,18.52
2022-08-05T18:11:36.569Z,18.25
2022-08-05T18:14:13.349Z,18.11
2022-08-05T18:16:51.909Z,18.18
2022-08-05T18:19:37.859Z,18.13
2022-08-05T18:22:17.975Z,17.57
2022-08-05T18:24:51.973Z,17.62
2022-08-05T18:27:24.784Z,17.63
2022-08-05T18:29:57.864Z,17.39
2022-08-05T18:32:33.701Z,17.60
2022-08-05T18:35:07.423Z,17.48
2022-08-05T18:37:44.203Z,17.27
2022-08-05T18:41:50.162Z,17.02
2022-08-05T18:43:16.884Z,17.24
2022-08-05T18:45:52.089Z,16.64
2022-08-05T18:48:33.158Z,16.62
2022-08-05T18:52:04.324Z,16.99
2022-08-05T18:54:20.205Z,16.48
2022-08-05T18:56:53.121Z,16.75
2022-08-05T18:59:44.038Z,16.28
2022-08-05T19:02:27.690Z,15.91
2022-08-05T19:06:05.532Z,15.93
2022-08-05T19:08:15.279Z,16.03
2022-08-05T19:10:49.727Z,15.54
2022-08-05T19:13:22.959Z,16.10
2022-08-05T19:16:00.256Z,15.68
2022-08-05T19:18:47.840Z,15.84
2022-08-05T19:21:22.862Z,15.51
2022-08-05T19:24:05.544Z,15.19
2022-08-05T19:26:43.823Z,15.33
2022-08-05T19:29:35.724Z,15.06
2022-08-05T19:32:13.671Z,14.80
2022-08-05T19:34:55.145Z,14.53
2022-08-05T19:37:47.386Z,14.99
2022-08-05T19:40:24.205Z,14.54
2022-08-05T19:43:04.634Z,14.16
2022-08-05T19:45:38.461Z,14.47
2022-08-05T19:48:33.001Z,14.16
2022-08-05T19:51:06.780Z,14.14
2022-08-05T19:54:04.022Z,14.18
2022-08-05T19:56:36.967Z,14.17
2022-08-05T19:59:21.335Z,13.69
2022-08-05T20:02:07.024Z,13.54
2022-08-05T20:04:42.835Z,13.84
2022-08-05T20:07:46.618Z,13.62
2022-08-05T20:10:14.807Z,13.19
2022-08-05T20:12:50.651Z,13.07
2022-08-05T20:15:52.114Z,12.90
2022-08-05T20:18:32.705Z,12.72
2022-08-05T20:21:08.420Z,12.73
2022-08-05T20:23:51.129Z,12.80
2022-08-05T20:26:26.623Z,13.05
2022-08-05T20:29:06.591Z,12.86
2022-08-05T20:32:03.614Z,12.30
2022-08-05T20:34:36.821Z,12.48
2022-08-05T20:37:24.148Z,12.02
2022-08-05T20:40:09.988Z,12.47
2022-08-05T20:42:43.623Z,11.98
2022-08-05T20:45:16.704Z,12.05
2022-08-05T20:47:53.806Z,11.83
2022-08-05T20:50:26.731Z,12.31
2022-08-05T20:53:00.092Z,12.02
2022-08-05T20:55:56.220Z,12.27
2022-08-05T20:58:31.344Z,12.04
2022-08-05T21:01:04.976Z,11.82
2022-08-05T21:03:47.885Z,12.27
2022-08-05T21:06:28.534Z,11.55
2022-08-05T21:09:04.654Z,11.54
2022-08-05T21:12:10.463Z,11.99
2022-08-05T21:14:35.294Z,12.04
2022-08-05T21:17:08.358Z,11.99
2022-08-05T21:19:47.444Z,11.68
2022-08-05T21:22:23.976Z,11.89
2022-08-05T21:24:58.166Z,11.55
2022-08-05T21:27:38.569Z,11.18
2022-08-05T21:30:17.439Z,11.60
2022-08-05T21:32:50.554Z,11.41
2022-08-05T21:35:30.174Z,11.72
2022-08-05T21:38:16.800Z,11.55
2022-08-05T21:40:50.012Z,11.54
2022-08-05T21:43:24.722Z,11.53
2022-08-05T21:46:00.446Z,11.56
2022-08-05T21:48:35.965Z,11.34
2022-08-05T21:52:16.619Z,11.11
2022-08-05T21:54:03.798Z,11.09
2022-08-05T21:56:44.671Z,11.42
2022-08-05T21:59:28.014Z,11.45
2022-08-05T22:02:10.633Z,11.01
2022-08-05T22:04:43.633Z,10.96
2022-08-05T22:07:16.637Z,11.11
2022-08-05T22:09:49.603Z,11.25
2022-08-05T22:12:26.461Z,10.91
2022-08-05T22:15:00.684Z,11.10
2022-08-05T22:17:33.636Z,10.91
2022-08-05T22:20:14.880Z,10.98
2022-08-05T22:23:17.104Z,11.05
2022-08-05T22:26:14.966Z,10.96
2022-08-05T22:28:47.935Z,10.98
2022-08-05T22:31:22.424Z,10.98
2022-08-05T22:34:01.591Z,10.87
2022-08-05T22:36:35.182Z,10.97
2022-08-05T22:39:12.826Z,10.62
2022-08-05T22:42:09.494Z,10.65
2022-08-05T22:44:55.488Z,10.75
2022-08-05T22:47:30.688Z,10.97
2022-08-05T22:50:20.195Z,10.82
2022-08-05T22:52:56.097Z,10.63
2022-08-05T22:55:56.243Z,10.99
2022-08-05T22:58:28.785Z,10.45
2022-08-05T23:01:02.273Z,10.52
2022-08-05T23:03:58.195Z,10.66
2022-08-05T23:06:27.940Z,10.59
2022-08-05T23:09:24.678Z,10.65
2022-08-05T23:11:54.501Z,10.53
2022-08-05T23:14:31.999Z,10.58
2022-08-05T23:17:24.232Z,10.62
2022-08-05T23:20:17.636Z,10.38
2022-08-05T23:22:50.922Z,10.20
2022-08-05T23:25:52.144Z,10.20
2022-08-05T23:28:28.713Z,10.33
2022-08-05T23:31:15.942Z,10.05
2022-08-05T23:34:05.658Z,10.54
2022-08-05T23:36:44.310Z,10.34
2022-08-05T23:39:31.931Z,9.78
2022-08-05T23:42:14.579Z,10.06
2022-08-05T23:44:54.338Z,10.11
2022-08-05T23:47:27.780Z,9.97
2022-08-05T23:50:09.638Z,9.59
2022-08-05T23:52:49.513Z,9.59
2022-08-05T23:55:24.743Z,9.92
2022-08-05T23:58:05.363Z,9.88
